createdAt,value
2017-01-07T00:00:11.623Z,0
2017-01-07T00:00:52.988Z,0
2017-01-07T00:03:23.639Z,0
2017-01-07T00:04:04.480Z,0
2017-01-07T00:04:45.514Z,0
2017-01-07T00:05:26.284Z,0
2017-01-07T00:06:06.929Z,0
2017-01-07T00:08:27.282Z,0
2017-01-07T00:09:08.215Z,0
2017-01-07T00:09:49.874Z,0
2017-01-07T00:10:31.370Z,0
2017-01-07T00:11:12.736Z,0
2017-01-07T00:11:54.356Z,0
2017-01-07T00:12:35.842Z,0
2017-01-07T00:13:17.488Z,0
2017-01-07T00:13:59.035Z,0
2017-01-07T00:14:40.598Z,0
2017-01-07T00:15:22.110Z,0
2017-01-07T00:17:52.312Z,0
2017-01-07T00:18:33.379Z,0
2017-01-07T00:20:48.586Z,0
2017-01-07T00:21:29.808Z,0
2017-01-07T00:22:11.457Z,0
2017-01-07T00:22:53.350Z,0
2017-01-07T00:29:02.199Z,0
2017-01-07T00:29:43.913Z,0
2017-01-07T00:32:25.635Z,0
2017-01-07T00:34:56.729Z,0
2017-01-07T00:35:38.370Z,0
2017-01-07T00:36:20.068Z,0
2017-01-07T00:39:01.680Z,0
2017-01-07T00:39:43.393Z,0
2017-01-07T00:40:25.134Z,0
2017-01-07T00:46:30.011Z,0
2017-01-07T00:50:40.038Z,0
2017-01-07T00:51:21.725Z,0
2017-01-07T00:52:03.338Z,0
2017-01-07T00:52:45.166Z,0
2017-01-07T00:53:26.949Z,0
2017-01-07T00:54:08.794Z,0
2017-01-07T00:54:50.542Z,0
2017-01-07T00:55:32.336Z,0
2017-01-07T00:56:14.147Z,0
2017-01-07T00:56:55.784Z,0
2017-01-07T00:57:37.561Z,0
2017-01-07T00:58:19.339Z,0
2017-01-07T00:59:00.895Z,0
2017-01-07T00:59:42.602Z,0
2017-01-07T01:00:24.433Z,0
2017-01-07T01:01:05.751Z,0
2017-01-07T01:01:47.260Z,0
2017-01-07T01:04:02.451Z,0
2017-01-07T01:04:44.134Z,0
2017-01-07T01:05:25.836Z,0
2017-01-07T01:08:07.828Z,0
2017-01-07T01:08:49.599Z,0
2017-01-07T01:09:30.342Z,0
2017-01-07T01:10:12.079Z,0
2017-01-07T01:10:53.192Z,0
2017-01-07T01:11:34.958Z,0
2017-01-07T01:12:16.666Z,0
2017-01-07T01:16:26.903Z,0
2017-01-07T01:17:08.674Z,0
2017-01-07T01:17:50.162Z,0
2017-01-07T01:18:32.004Z,0
2017-01-07T01:19:13.760Z,0
2017-01-07T01:19:55.649Z,0
2017-01-07T01:20:37.445Z,0
2017-01-07T01:21:19.357Z,0
2017-01-07T01:22:01.160Z,0
2017-01-07T01:22:42.306Z,0
2017-01-07T01:23:24.024Z,0
2017-01-07T01:24:05.726Z,0
2017-01-07T01:24:47.185Z,0
2017-01-07T01:25:28.662Z,0
2017-01-07T01:26:10.059Z,0
2017-01-07T01:26:51.465Z,0
2017-01-07T01:29:07.007Z,0
2017-01-07T01:29:48.893Z,0
2017-01-07T01:30:30.642Z,0
2017-01-07T01:32:46.153Z,0
2017-01-07T01:33:28.043Z,0
2017-01-07T01:34:09.747Z,0
2017-01-07T01:38:19.483Z,0
2017-01-07T01:39:00.730Z,0
2017-01-07T01:39:42.440Z,0
2017-01-07T01:42:03.202Z,0
2017-01-07T01:44:18.243Z,0
2017-01-07T01:44:59.866Z,0
2017-01-07T01:45:41.744Z,0
2017-01-07T01:46:23.525Z,0
2017-01-07T01:49:04.695Z,0
2017-01-07T01:49:46.423Z,0
2017-01-07T01:50:27.982Z,0
2017-01-07T01:51:09.472Z,0
2017-01-07T01:51:51.336Z,0
2017-01-07T01:52:32.965Z,0
2017-01-07T01:53:14.534Z,0
2017-01-07T01:53:55.918Z,0
2017-01-07T01:54:37.719Z,0
2017-01-07T01:58:37.227Z,0
2017-01-07T01:59:18.915Z,0
2017-01-07T02:00:00.712Z,0
2017-01-07T02:00:42.249Z,0
2017-01-07T02:01:23.974Z,0
2017-01-07T02:02:05.771Z,0
2017-01-07T02:02:47.570Z,0
2017-01-07T02:03:29.018Z,0
2017-01-07T02:04:10.805Z,0
2017-01-07T02:04:52.496Z,0
2017-01-07T02:05:34.259Z,0
2017-01-07T02:06:15.821Z,0
2017-01-07T02:06:57.300Z,0
2017-01-07T02:07:38.875Z,0
2017-01-07T02:08:20.616Z,0
2017-01-07T02:09:01.925Z,0
2017-01-07T02:09:43.655Z,0
2017-01-07T02:10:25.416Z,0
2017-01-07T02:11:07.226Z,0
2017-01-07T02:11:48.891Z,0
2017-01-07T02:12:30.691Z,0
2017-01-07T02:13:12.391Z,0
2017-01-07T02:13:54.253Z,0
2017-01-07T02:14:35.892Z,0
2017-01-07T02:15:16.525Z,0
2017-01-07T02:15:57.055Z,0
2017-01-07T02:16:37.578Z,0
2017-01-07T02:17:18.108Z,0
2017-01-07T02:17:58.635Z,0
2017-01-07T02:18:39.164Z,0
2017-01-07T02:19:19.683Z,0
2017-01-07T02:20:00.220Z,0
2017-01-07T02:20:40.747Z,0
2017-01-07T02:21:21.273Z,0
2017-01-07T02:22:01.805Z,0
2017-01-07T02:22:42.347Z,0
2017-01-07T02:23:22.875Z,0
2017-01-07T02:24:03.403Z,0
2017-01-07T02:24:43.926Z,0
2017-01-07T02:25:24.454Z,0
2017-01-07T02:26:04.981Z,0
2017-01-07T02:26:45.511Z,0
2017-01-07T02:27:26.031Z,0
2017-01-07T02:28:06.560Z,0
2017-01-07T02:28:47.083Z,0
2017-01-07T02:29:27.612Z,0
2017-01-07T02:30:08.136Z,0
2017-01-07T02:30:48.661Z,0
2017-01-07T02:31:29.185Z,0
2017-01-07T02:32:09.714Z,0
2017-01-07T02:32:50.242Z,0
2017-01-07T02:33:30.769Z,0
2017-01-07T02:34:11.300Z,0
2017-01-07T02:34:51.828Z,0
2017-01-07T02:35:32.358Z,0
2017-01-07T02:36:12.884Z,0
2017-01-07T02:36:53.408Z,0
2017-01-07T02:37:33.937Z,0
2017-01-07T02:38:14.452Z,0
2017-01-07T02:38:54.978Z,0
2017-01-07T02:39:35.505Z,0
2017-01-07T02:40:16.038Z,0
2017-01-07T02:40:56.566Z,0
2017-01-07T02:41:37.085Z,0
2017-01-07T02:42:17.613Z,0
2017-01-07T02:42:58.149Z,0
2017-01-07T02:43:38.680Z,0
2017-01-07T02:44:19.210Z,0
2017-01-07T02:44:59.738Z,0
2017-01-07T02:45:40.266Z,0
2017-01-07T02:46:20.801Z,0
2017-01-07T02:47:01.330Z,0
2017-01-07T02:47:41.858Z,0
2017-01-07T02:48:22.376Z,0
2017-01-07T02:49:02.909Z,0
2017-01-07T02:49:43.441Z,0
2017-01-07T02:50:23.969Z,0
2017-01-07T02:51:04.488Z,0
2017-01-07T02:51:45.014Z,0
2017-01-07T02:52:25.547Z,0
2017-01-07T02:53:06.085Z,0
2017-01-07T02:53:46.612Z,0
2017-01-07T02:54:27.138Z,0
2017-01-07T02:55:07.669Z,0
2017-01-07T02:55:48.206Z,0
2017-01-07T02:56:28.728Z,0
2017-01-07T02:57:09.265Z,0
2017-01-07T02:57:49.789Z,0
2017-01-07T02:58:30.310Z,0
2017-01-07T02:59:10.836Z,0
2017-01-07T02:59:51.362Z,0
2017-01-07T03:00:31.889Z,0
2017-01-07T03:01:12.416Z,0
2017-01-07T03:01:52.948Z,0
2017-01-07T03:02:33.466Z,0
2017-01-07T03:03:13.993Z,0
2017-01-07T03:03:54.522Z,0
2017-01-07T03:04:35.048Z,0
2017-01-07T03:05:15.578Z,0
2017-01-07T03:05:56.097Z,0
2017-01-07T03:06:36.624Z,0
2017-01-07T03:07:17.149Z,0
2017-01-07T03:07:57.679Z,0
2017-01-07T03:08:38.198Z,0
2017-01-07T03:09:18.729Z,0
2017-01-07T03:09:59.261Z,0
2017-01-07T03:10:39.796Z,0
2017-01-07T03:11:20.324Z,0
2017-01-07T03:12:00.860Z,0
2017-01-07T03:12:41.388Z,0
2017-01-07T03:13:21.910Z,0
2017-01-07T03:14:02.497Z,0
2017-01-07T03:14:43.018Z,0
2017-01-07T03:15:23.549Z,0
2017-01-07T03:16:04.084Z,0
2017-01-07T03:16:44.613Z,0
2017-01-07T03:17:25.134Z,0
2017-01-07T03:18:05.666Z,0
2017-01-07T03:18:46.198Z,0
2017-01-07T03:19:26.724Z,0
2017-01-07T03:20:07.252Z,0
2017-01-07T03:20:47.781Z,0
2017-01-07T03:21:28.308Z,0
2017-01-07T03:22:08.837Z,0
2017-01-07T03:22:49.365Z,0
2017-01-07T03:23:29.893Z,0
2017-01-07T03:24:10.423Z,0
2017-01-07T03:24:50.945Z,0
2017-01-07T03:25:31.466Z,0
2017-01-07T03:26:11.996Z,0
2017-01-07T03:26:52.512Z,0
2017-01-07T03:27:33.043Z,0
2017-01-07T03:28:13.593Z,0
2017-01-07T03:28:54.122Z,0
2017-01-07T03:29:34.646Z,0
2017-01-07T03:30:15.171Z,0
2017-01-07T03:30:55.707Z,0
2017-01-07T03:31:36.232Z,0
2017-01-07T03:32:16.759Z,0
2017-01-07T03:32:57.288Z,0
2017-01-07T03:33:37.814Z,0
2017-01-07T03:34:18.344Z,0
2017-01-07T03:34:58.865Z,0
2017-01-07T03:35:39.391Z,0
2017-01-07T03:36:19.927Z,0
2017-01-07T03:37:00.456Z,0
2017-01-07T03:37:40.984Z,0
2017-01-07T03:38:21.512Z,0
2017-01-07T03:39:02.037Z,0
2017-01-07T03:39:42.579Z,0
2017-01-07T03:40:23.108Z,0
2017-01-07T03:41:03.649Z,0
2017-01-07T03:41:44.167Z,0
2017-01-07T03:42:24.696Z,0
2017-01-07T03:43:05.230Z,0
2017-01-07T03:43:45.764Z,0
2017-01-07T03:44:26.298Z,0
2017-01-07T03:45:06.821Z,0
2017-01-07T03:45:47.345Z,0
2017-01-07T03:46:27.872Z,0
2017-01-07T03:47:08.400Z,0
2017-01-07T03:47:48.930Z,0
2017-01-07T03:48:29.459Z,0
2017-01-07T03:49:09.990Z,0
2017-01-07T03:49:50.517Z,0
2017-01-07T03:50:31.052Z,0
2017-01-07T03:51:11.569Z,0
2017-01-07T03:51:52.100Z,0
2017-01-07T03:52:32.624Z,0
2017-01-07T03:53:13.154Z,0
2017-01-07T03:53:53.675Z,0
2017-01-07T03:54:34.201Z,0
2017-01-07T03:55:14.727Z,0
2017-01-07T03:55:55.258Z,0
2017-01-07T03:56:35.783Z,0
2017-01-07T03:57:16.306Z,0
2017-01-07T03:57:56.841Z,0
2017-01-07T03:58:37.375Z,0
2017-01-07T03:59:17.909Z,0
2017-01-07T03:59:58.426Z,0
2017-01-07T04:00:38.955Z,0
2017-01-07T04:01:19.483Z,0
2017-01-07T04:02:00.064Z,0
2017-01-07T04:02:40.539Z,0
2017-01-07T04:03:21.059Z,0
2017-01-07T04:04:01.587Z,0
2017-01-07T04:04:42.117Z,0
2017-01-07T04:05:22.632Z,0
2017-01-07T04:06:03.160Z,0
2017-01-07T04:06:43.693Z,0
2017-01-07T04:07:24.228Z,0
2017-01-07T04:08:04.754Z,0
2017-01-07T04:08:45.280Z,0
2017-01-07T04:09:25.805Z,0
2017-01-07T04:10:06.341Z,0
2017-01-07T04:10:46.863Z,0
2017-01-07T04:11:27.391Z,0
2017-01-07T04:12:07.923Z,0
2017-01-07T04:12:48.451Z,0
2017-01-07T04:13:28.978Z,0
2017-01-07T04:14:09.503Z,0
2017-01-07T04:14:50.032Z,0
2017-01-07T04:15:30.562Z,0
2017-01-07T04:16:11.168Z,0
2017-01-07T04:16:51.686Z,0
2017-01-07T04:17:32.218Z,0
2017-01-07T04:18:12.752Z,0
2017-01-07T04:18:53.287Z,0
2017-01-07T04:19:33.821Z,0
2017-01-07T04:20:14.343Z,0
2017-01-07T04:20:54.879Z,0
2017-01-07T04:21:35.405Z,0
2017-01-07T04:22:15.936Z,0
2017-01-07T04:22:56.464Z,0
2017-01-07T04:23:36.990Z,0
2017-01-07T04:24:17.522Z,0
2017-01-07T04:24:58.056Z,0
2017-01-07T04:25:38.589Z,0
2017-01-07T04:26:19.116Z,0
2017-01-07T04:26:59.647Z,0
2017-01-07T04:27:40.175Z,0
2017-01-07T04:28:20.707Z,0
2017-01-07T04:29:01.233Z,0
2017-01-07T04:29:41.769Z,0
2017-01-07T04:30:22.293Z,0
2017-01-07T04:31:02.825Z,0
2017-01-07T04:31:43.354Z,0
2017-01-07T04:32:23.896Z,0
2017-01-07T04:33:04.430Z,0
2017-01-07T04:33:44.981Z,0
2017-01-07T04:34:25.511Z,0
2017-01-07T04:35:06.038Z,0
2017-01-07T04:35:46.567Z,0
2017-01-07T04:36:27.094Z,0
2017-01-07T04:37:07.622Z,0
2017-01-07T04:37:48.148Z,0
2017-01-07T04:38:28.679Z,0
2017-01-07T04:39:09.204Z,0
2017-01-07T04:39:49.725Z,0
2017-01-07T04:40:30.250Z,0
2017-01-07T04:41:10.780Z,0
2017-01-07T04:41:51.306Z,0
2017-01-07T04:42:31.838Z,0
2017-01-07T04:43:12.368Z,0
2017-01-07T04:43:52.892Z,0
2017-01-07T04:44:33.419Z,0
2017-01-07T04:45:13.948Z,0
2017-01-07T04:45:54.479Z,0
2017-01-07T04:46:35.004Z,0
2017-01-07T04:47:15.535Z,0
2017-01-07T04:47:56.070Z,0
2017-01-07T04:48:36.604Z,0
2017-01-07T04:49:17.139Z,0
2017-01-07T04:49:57.669Z,0
2017-01-07T04:50:38.195Z,0
2017-01-07T04:51:18.728Z,0
2017-01-07T04:51:59.257Z,0
2017-01-07T04:52:39.791Z,0
2017-01-07T04:53:20.309Z,0
2017-01-07T04:54:00.840Z,0
2017-01-07T04:54:41.369Z,0
2017-01-07T04:55:21.912Z,0
2017-01-07T04:56:02.443Z,0
2017-01-07T04:56:42.971Z,0
2017-01-07T04:57:23.502Z,0
2017-01-07T04:58:04.031Z,0
2017-01-07T04:58:44.560Z,0
2017-01-07T04:59:25.077Z,0
2017-01-07T05:00:05.611Z,0
2017-01-07T05:00:46.143Z,0
2017-01-07T05:01:26.703Z,0
2017-01-07T05:02:07.259Z,0
2017-01-07T05:02:47.789Z,0
2017-01-07T05:03:28.321Z,0
2017-01-07T05:04:08.887Z,0
2017-01-07T05:04:49.419Z,0
2017-01-07T05:05:29.950Z,0
2017-01-07T05:06:10.473Z,0
2017-01-07T05:06:51.000Z,0
2017-01-07T05:07:31.534Z,0
2017-01-07T05:08:12.066Z,0
2017-01-07T05:08:52.607Z,0
2017-01-07T05:09:33.119Z,0
2017-01-07T05:10:13.647Z,0
2017-01-07T05:10:54.174Z,0
2017-01-07T05:11:34.706Z,0
2017-01-07T05:12:15.238Z,0
2017-01-07T05:12:55.763Z,0
2017-01-07T05:13:36.292Z,0
2017-01-07T05:14:16.822Z,0
2017-01-07T05:14:57.357Z,0
2017-01-07T05:15:37.877Z,0
2017-01-07T05:16:18.403Z,0
2017-01-07T05:16:58.941Z,0
2017-01-07T05:17:39.471Z,0
2017-01-07T05:18:20.008Z,0
2017-01-07T05:19:00.538Z,0
2017-01-07T05:19:41.070Z,0
2017-01-07T05:20:21.600Z,0
2017-01-07T05:21:02.129Z,0
2017-01-07T05:21:42.663Z,0
2017-01-07T05:22:23.190Z,0
2017-01-07T05:23:03.721Z,0
2017-01-07T05:23:44.252Z,0
2017-01-07T05:24:24.783Z,0
2017-01-07T05:25:05.312Z,0
2017-01-07T05:25:45.841Z,0
2017-01-07T05:26:26.371Z,0
2017-01-07T05:27:06.902Z,0
2017-01-07T05:27:47.431Z,0
2017-01-07T05:28:27.953Z,0
2017-01-07T05:29:08.481Z,0
2017-01-07T05:29:49.008Z,0
2017-01-07T05:30:29.536Z,0
2017-01-07T05:31:10.067Z,0
2017-01-07T05:31:50.599Z,0
2017-01-07T05:32:31.130Z,0
2017-01-07T05:33:11.672Z,0
2017-01-07T05:33:52.202Z,0
2017-01-07T05:34:32.734Z,0
2017-01-07T05:35:13.269Z,0
2017-01-07T05:35:53.791Z,0
2017-01-07T05:36:34.317Z,0
2017-01-07T05:37:14.846Z,0
2017-01-07T05:37:55.378Z,0
2017-01-07T05:38:35.959Z,0
2017-01-07T05:39:16.491Z,0
2017-01-07T05:39:57.021Z,0
2017-01-07T05:40:37.551Z,0
2017-01-07T05:41:18.079Z,0
2017-01-07T05:41:58.606Z,0
2017-01-07T05:42:39.138Z,0
2017-01-07T05:43:19.666Z,0
2017-01-07T05:44:00.229Z,0
2017-01-07T05:44:40.755Z,0
2017-01-07T05:45:21.289Z,0
2017-01-07T05:46:01.802Z,0
2017-01-07T05:46:42.332Z,0
2017-01-07T05:47:22.863Z,0
2017-01-07T05:48:03.382Z,0
2017-01-07T05:48:43.905Z,0
2017-01-07T05:49:24.443Z,0
2017-01-07T05:50:04.970Z,0
2017-01-07T05:50:45.492Z,0
2017-01-07T05:51:26.025Z,0
2017-01-07T05:52:06.554Z,0
2017-01-07T05:52:47.088Z,0
2017-01-07T05:53:27.616Z,0
2017-01-07T05:54:08.148Z,0
2017-01-07T05:54:48.677Z,0
2017-01-07T05:55:29.212Z,0
2017-01-07T05:56:09.746Z,0
2017-01-07T05:56:50.282Z,0
2017-01-07T05:57:30.803Z,0
2017-01-07T05:58:11.341Z,0
2017-01-07T05:58:51.871Z,0
2017-01-07T05:59:32.414Z,0
2017-01-07T06:00:12.934Z,0
2017-01-07T06:00:53.449Z,0
2017-01-07T06:01:33.974Z,0
2017-01-07T06:02:14.505Z,0
2017-01-07T06:02:55.033Z,0
2017-01-07T06:03:35.553Z,0
2017-01-07T06:04:16.083Z,0
2017-01-07T06:04:56.617Z,0
2017-01-07T06:05:37.151Z,0
2017-01-07T06:06:17.689Z,0
2017-01-07T06:06:58.215Z,0
2017-01-07T06:07:38.745Z,0
2017-01-07T06:08:19.272Z,0
2017-01-07T06:08:59.803Z,0
2017-01-07T06:09:40.341Z,0
2017-01-07T06:10:20.869Z,0
2017-01-07T06:11:01.394Z,0
2017-01-07T06:11:41.915Z,0
2017-01-07T06:12:22.452Z,0
2017-01-07T06:13:02.989Z,0
2017-01-07T06:13:43.522Z,0
2017-01-07T06:14:24.047Z,0
2017-01-07T06:15:04.576Z,0
2017-01-07T06:15:45.105Z,0
2017-01-07T06:16:25.635Z,0
2017-01-07T06:17:06.159Z,0
2017-01-07T06:17:46.680Z,0
2017-01-07T06:18:27.209Z,0
2017-01-07T06:19:07.764Z,0
2017-01-07T06:19:48.305Z,0
2017-01-07T06:20:28.839Z,0
2017-01-07T06:21:09.366Z,0
2017-01-07T06:21:49.888Z,0
2017-01-07T06:22:30.430Z,0
2017-01-07T06:23:10.966Z,0
2017-01-07T06:23:51.498Z,0
2017-01-07T06:24:32.019Z,0
2017-01-07T06:25:12.546Z,0
2017-01-07T06:25:53.075Z,0
2017-01-07T06:26:33.680Z,0
2017-01-07T06:27:14.207Z,0
2017-01-07T06:27:54.732Z,0
2017-01-07T06:28:35.269Z,0
2017-01-07T06:29:15.802Z,0
2017-01-07T06:29:56.319Z,0
2017-01-07T06:30:36.855Z,0
2017-01-07T06:31:17.387Z,0
2017-01-07T06:31:57.919Z,0
2017-01-07T06:32:38.446Z,0
2017-01-07T06:33:18.974Z,0
2017-01-07T06:33:59.502Z,0
2017-01-07T06:34:40.025Z,0
2017-01-07T06:35:20.554Z,0
2017-01-07T06:36:01.078Z,0
2017-01-07T06:36:41.611Z,0
2017-01-07T06:37:22.139Z,0
2017-01-07T06:38:02.672Z,0
2017-01-07T06:38:43.200Z,0
2017-01-07T06:39:23.728Z,0
2017-01-07T06:40:04.256Z,0
2017-01-07T06:40:44.791Z,0
2017-01-07T06:41:25.322Z,0
2017-01-07T06:42:05.860Z,0
2017-01-07T06:42:46.386Z,0
2017-01-07T06:43:26.916Z,0
2017-01-07T06:44:07.445Z,0
2017-01-07T06:44:47.976Z,0
2017-01-07T06:45:28.502Z,0
2017-01-07T06:46:09.030Z,0
2017-01-07T06:46:49.552Z,0
2017-01-07T06:47:30.081Z,0
2017-01-07T06:48:10.610Z,0
2017-01-07T06:48:51.143Z,0
2017-01-07T06:49:31.667Z,0
2017-01-07T06:50:12.195Z,0
2017-01-07T06:50:52.724Z,0
2017-01-07T06:51:33.256Z,0
2017-01-07T06:52:13.784Z,0
2017-01-07T06:52:54.318Z,0
2017-01-07T06:53:34.840Z,0
2017-01-07T06:54:15.383Z,0
2017-01-07T06:54:55.916Z,0
2017-01-07T06:55:36.447Z,0
2017-01-07T06:56:16.971Z,0
2017-01-07T06:56:57.501Z,0
2017-01-07T06:57:38.027Z,0
2017-01-07T06:58:18.565Z,0
2017-01-07T06:58:59.096Z,0
2017-01-07T06:59:39.625Z,0
2017-01-07T07:00:20.143Z,0
2017-01-07T07:01:00.675Z,0
2017-01-07T07:01:41.205Z,0
2017-01-07T07:02:21.747Z,0
2017-01-07T07:03:02.277Z,0
2017-01-07T07:03:42.812Z,0
2017-01-07T07:04:23.341Z,0
2017-01-07T07:05:03.881Z,0
2017-01-07T07:05:44.423Z,0
2017-01-07T07:06:24.943Z,0
2017-01-07T07:07:05.471Z,0
2017-01-07T07:07:46.004Z,0
2017-01-07T07:08:26.536Z,0
2017-01-07T07:09:07.075Z,0
2017-01-07T07:09:47.594Z,0
2017-01-07T07:10:28.110Z,0
2017-01-07T07:11:08.657Z,0
2017-01-07T07:11:49.188Z,0
2017-01-07T07:12:29.718Z,0
2017-01-07T07:13:10.248Z,0
2017-01-07T07:13:50.782Z,0
2017-01-07T07:14:31.322Z,0
2017-01-07T07:15:11.858Z,0
2017-01-07T07:15:52.388Z,0
2017-01-07T07:16:32.920Z,0
2017-01-07T07:17:13.450Z,0
2017-01-07T07:17:53.984Z,0
2017-01-07T07:18:34.517Z,0
2017-01-07T07:19:15.044Z,0
2017-01-07T07:19:55.577Z,0
2017-01-07T07:20:36.103Z,0
2017-01-07T07:21:16.635Z,0
2017-01-07T07:21:57.163Z,0
2017-01-07T07:22:37.694Z,0
2017-01-07T07:23:18.223Z,0
2017-01-07T07:23:58.746Z,0
2017-01-07T07:24:39.417Z,0
2017-01-07T07:25:20.031Z,0
2017-01-07T07:26:00.570Z,0
2017-01-07T07:26:41.104Z,0
2017-01-07T07:27:21.636Z,0
2017-01-07T07:28:02.166Z,0
2017-01-07T07:28:42.693Z,0
2017-01-07T07:29:23.223Z,0
2017-01-07T07:30:03.754Z,0
2017-01-07T07:30:44.288Z,0
2017-01-07T07:31:24.814Z,0
2017-01-07T07:32:05.346Z,0
2017-01-07T07:32:45.873Z,0
2017-01-07T07:33:26.542Z,0
2017-01-07T07:34:07.077Z,0
2017-01-07T07:34:47.608Z,0
2017-01-07T07:35:28.139Z,0
2017-01-07T07:36:08.666Z,0
2017-01-07T07:36:49.556Z,0
2017-01-07T07:37:30.178Z,0
2017-01-07T07:38:10.707Z,0
2017-01-07T07:38:51.242Z,0
2017-01-07T07:39:31.851Z,0
2017-01-07T07:40:12.464Z,0
2017-01-07T07:40:52.925Z,5
2017-01-07T07:41:33.454Z,5
2017-01-07T07:42:13.983Z,5
2017-01-07T07:42:54.560Z,5
2017-01-07T07:43:35.084Z,5
2017-01-07T07:44:15.613Z,5
2017-01-07T07:44:56.135Z,5
2017-01-07T07:45:36.665Z,5
2017-01-07T07:46:17.194Z,5
2017-01-07T07:46:57.733Z,5
2017-01-07T07:47:38.267Z,5
2017-01-07T07:48:18.794Z,5
2017-01-07T07:48:59.324Z,5
2017-01-07T07:49:39.853Z,5
2017-01-07T07:50:20.386Z,5
2017-01-07T07:51:00.919Z,5
2017-01-07T07:51:41.440Z,5
2017-01-07T07:52:21.982Z,5
2017-01-07T07:53:02.495Z,5
2017-01-07T07:53:43.024Z,5
2017-01-07T07:54:23.574Z,5
2017-01-07T07:55:04.095Z,5
2017-01-07T07:55:44.626Z,5
2017-01-07T07:56:25.148Z,5
2017-01-07T07:57:05.684Z,5
2017-01-07T07:57:46.209Z,5
2017-01-07T07:58:26.740Z,5
2017-01-07T07:59:07.270Z,5
2017-01-07T07:59:47.808Z,5
2017-01-07T08:00:28.340Z,5
2017-01-07T08:01:08.879Z,5
2017-01-07T08:01:49.418Z,5
2017-01-07T08:02:30.000Z,10
2017-01-07T08:03:10.641Z,10
2017-01-07T08:03:51.356Z,10
2017-01-07T08:04:32.009Z,10
2017-01-07T08:05:12.691Z,10
2017-01-07T08:05:53.521Z,10
2017-01-07T08:06:34.041Z,10
2017-01-07T08:07:14.742Z,10
2017-01-07T08:07:55.264Z,10
2017-01-07T08:08:35.791Z,10
2017-01-07T08:09:16.476Z,10
2017-01-07T08:09:57.180Z,10
2017-01-07T08:10:37.875Z,10
2017-01-07T08:11:18.561Z,10
2017-01-07T08:11:59.141Z,10
2017-01-07T08:12:39.859Z,15
2017-01-07T08:13:20.393Z,15
2017-01-07T08:14:01.079Z,15
2017-01-07T08:14:41.793Z,15
2017-01-07T08:15:22.338Z,15
2017-01-07T08:16:03.107Z,15
2017-01-07T08:16:43.703Z,15
2017-01-07T08:17:24.348Z,15
2017-01-07T08:18:04.877Z,15
2017-01-07T08:18:45.608Z,15
2017-01-07T08:19:26.885Z,15
2017-01-07T08:20:07.892Z,15
2017-01-07T08:20:49.405Z,20
2017-01-07T08:21:30.826Z,20
2017-01-07T08:22:11.348Z,20
2017-01-07T08:22:51.878Z,20
2017-01-07T08:23:32.637Z,20
2017-01-07T08:24:16.322Z,20
2017-01-07T08:24:57.677Z,20
2017-01-07T08:25:39.037Z,20
2017-01-07T08:26:20.005Z,20
2017-01-07T08:27:01.626Z,20
2017-01-07T08:27:43.261Z,20
2017-01-07T08:28:24.337Z,20
2017-01-07T08:29:05.934Z,20
2017-01-07T08:29:47.134Z,20
2017-01-07T08:30:28.757Z,20
2017-01-07T08:31:10.011Z,20
2017-01-07T08:31:50.876Z,20
2017-01-07T08:32:32.424Z,20
2017-01-07T08:33:14.298Z,20
2017-01-07T08:33:55.798Z,20
2017-01-07T08:34:37.780Z,25
2017-01-07T08:35:19.032Z,25
2017-01-07T08:36:00.071Z,25
2017-01-07T08:36:41.058Z,25
2017-01-07T08:37:22.956Z,25
2017-01-07T08:38:03.947Z,25
2017-01-07T08:38:44.481Z,25
2017-01-07T08:39:25.016Z,30
2017-01-07T08:40:05.544Z,30
2017-01-07T08:40:46.706Z,30
2017-01-07T08:41:27.610Z,30
2017-01-07T08:42:08.364Z,30
2017-01-07T08:42:49.058Z,30
2017-01-07T08:43:29.706Z,35
2017-01-07T08:44:10.508Z,35
2017-01-07T08:44:51.036Z,35
2017-01-07T08:45:31.712Z,40
2017-01-07T08:46:12.260Z,40
2017-01-07T08:46:52.792Z,40
2017-01-07T08:47:33.304Z,40
2017-01-07T08:48:13.833Z,40
2017-01-07T08:48:54.364Z,40
2017-01-07T08:49:34.906Z,45
2017-01-07T08:50:15.578Z,45
2017-01-07T08:50:56.110Z,40
2017-01-07T08:51:36.790Z,40
2017-01-07T08:52:17.451Z,35
2017-01-07T08:52:58.244Z,35
2017-01-07T08:53:38.777Z,30
2017-01-07T08:54:19.314Z,30
2017-01-07T08:55:00.143Z,30
2017-01-07T08:55:40.680Z,30
2017-01-07T08:56:21.376Z,35
2017-01-07T08:57:01.909Z,35
2017-01-07T08:57:42.438Z,35
2017-01-07T08:58:22.961Z,35
2017-01-07T08:59:03.669Z,35
2017-01-07T08:59:44.331Z,35
2017-01-07T09:00:24.989Z,35
2017-01-07T09:01:05.575Z,35
2017-01-07T09:01:46.268Z,35
2017-01-07T09:02:26.794Z,35
2017-01-07T09:03:07.462Z,35
2017-01-07T09:03:47.994Z,35
2017-01-07T09:04:30.060Z,35
2017-01-07T09:05:10.702Z,35
2017-01-07T09:05:51.223Z,35
2017-01-07T09:06:31.833Z,35
2017-01-07T09:07:12.364Z,40
2017-01-07T09:07:52.894Z,40
2017-01-07T09:08:33.423Z,45
2017-01-07T09:09:13.956Z,45
2017-01-07T09:09:54.475Z,45
2017-01-07T09:10:43.293Z,45
2017-01-07T09:11:34.192Z,40
2017-01-07T09:12:17.625Z,40
2017-01-07T09:12:58.246Z,40
2017-01-07T09:13:38.928Z,45
2017-01-07T09:14:19.459Z,45
2017-01-07T09:15:00.192Z,50
2017-01-07T09:15:40.860Z,50
2017-01-07T09:16:21.508Z,55
2017-01-07T09:17:02.196Z,55
2017-01-07T09:17:42.910Z,60
2017-01-07T09:18:23.591Z,60
2017-01-07T09:19:04.175Z,60
2017-01-07T09:19:44.824Z,60
2017-01-07T09:20:25.452Z,60
2017-01-07T09:21:05.988Z,65
2017-01-07T09:21:46.643Z,65
2017-01-07T09:22:27.188Z,65
2017-01-07T09:23:07.748Z,65
2017-01-07T09:23:48.277Z,65
2017-01-07T09:24:28.842Z,65
2017-01-07T09:25:09.621Z,65
2017-01-07T09:25:50.155Z,60
2017-01-07T09:26:30.823Z,60
2017-01-07T09:27:11.359Z,55
2017-01-07T09:27:52.066Z,55
2017-01-07T09:28:32.591Z,55
2017-01-07T09:29:13.129Z,55
2017-01-07T09:29:53.802Z,55
2017-01-07T09:30:34.325Z,60
2017-01-07T09:31:14.878Z,60
2017-01-07T09:31:55.403Z,60
2017-01-07T09:32:35.943Z,65
2017-01-07T09:33:16.471Z,65
2017-01-07T09:33:57.134Z,70
2017-01-07T09:34:37.534Z,75
2017-01-07T09:35:18.099Z,75
2017-01-07T09:35:58.639Z,80
2017-01-07T09:36:39.173Z,75
2017-01-07T09:37:19.843Z,75
2017-01-07T09:38:00.369Z,70
2017-01-07T09:38:40.932Z,65
2017-01-07T09:39:21.472Z,60
2017-01-07T09:40:02.104Z,55
2017-01-07T09:40:42.641Z,55
2017-01-07T09:43:22.316Z,50
2017-01-07T09:44:02.971Z,50
2017-01-07T09:44:43.497Z,50
2017-01-07T09:45:24.055Z,50
2017-01-07T09:46:04.582Z,55
2017-01-07T09:46:45.106Z,55
2017-01-07T09:47:25.632Z,55
2017-01-07T09:48:06.314Z,55
2017-01-07T09:48:46.848Z,60
2017-01-07T09:49:27.383Z,60
2017-01-07T09:50:07.926Z,65
2017-01-07T09:50:48.572Z,70
2017-01-07T09:51:29.120Z,75
2017-01-07T09:52:09.663Z,75
2017-01-07T09:52:50.219Z,80
2017-01-07T09:53:30.756Z,85
2017-01-07T09:54:11.292Z,90
2017-01-07T09:54:51.820Z,95
2017-01-07T09:55:32.528Z,100
2017-01-07T09:56:13.061Z,105
2017-01-07T09:56:53.584Z,105
2017-01-07T09:57:34.120Z,100
2017-01-07T09:58:14.650Z,100
2017-01-07T09:58:55.180Z,100
2017-01-07T09:59:36.127Z,95
2017-01-07T10:00:16.797Z,95
2017-01-07T10:00:57.435Z,90
2017-01-07T10:01:37.966Z,90
2017-01-07T10:02:18.490Z,85
2017-01-07T10:02:59.158Z,85
2017-01-07T10:03:39.915Z,80
2017-01-07T10:04:20.536Z,80
2017-01-07T10:05:01.069Z,75
2017-01-07T10:05:41.604Z,75
2017-01-07T10:06:22.202Z,70
2017-01-07T10:07:02.978Z,70
2017-01-07T10:07:43.512Z,70
2017-01-07T10:08:24.186Z,65
2017-01-07T10:09:04.727Z,65
2017-01-07T10:09:45.309Z,60
2017-01-07T10:10:25.999Z,60
2017-01-07T10:11:06.584Z,55
2017-01-07T10:11:47.252Z,55
2017-01-07T10:12:27.891Z,55
2017-01-07T10:13:08.424Z,55
2017-01-07T10:13:48.956Z,55
2017-01-07T10:14:29.667Z,55
2017-01-07T10:15:10.324Z,55
2017-01-07T10:15:50.844Z,60
2017-01-07T10:16:31.482Z,65
2017-01-07T10:17:12.151Z,65
2017-01-07T10:17:52.678Z,70
2017-01-07T10:18:33.213Z,70
2017-01-07T10:19:13.744Z,75
2017-01-07T10:19:54.273Z,75
2017-01-07T10:20:34.933Z,75
2017-01-07T10:21:15.456Z,75
2017-01-07T10:21:55.983Z,70
2017-01-07T10:22:36.568Z,65
2017-01-07T10:23:17.117Z,60
2017-01-07T10:23:57.650Z,55
2017-01-07T10:24:38.179Z,55
2017-01-07T10:25:18.720Z,55
2017-01-07T10:25:59.260Z,55
2017-01-07T10:26:39.788Z,55
2017-01-07T10:27:20.310Z,50
2017-01-07T10:28:00.843Z,50
2017-01-07T10:28:41.377Z,50
2017-01-07T10:29:21.895Z,45
2017-01-07T10:30:02.500Z,45
2017-01-07T10:30:43.140Z,45
2017-01-07T10:31:23.695Z,45
2017-01-07T10:32:04.229Z,45
2017-01-07T10:32:44.790Z,45
2017-01-07T10:33:25.305Z,50
2017-01-07T10:34:05.840Z,50
2017-01-07T10:34:46.361Z,50
2017-01-07T10:35:26.900Z,45
2017-01-07T10:36:07.425Z,45
2017-01-07T10:36:47.976Z,45
2017-01-07T10:37:28.534Z,45
2017-01-07T10:38:09.069Z,45
2017-01-07T10:38:49.604Z,45
2017-01-07T10:39:30.135Z,50
2017-01-07T10:40:10.664Z,50
2017-01-07T10:40:51.196Z,45
2017-01-07T10:41:31.725Z,45
2017-01-07T10:42:12.504Z,45
2017-01-07T10:42:53.226Z,50
2017-01-07T10:43:33.759Z,50
2017-01-07T10:44:14.410Z,55
2017-01-07T10:44:55.043Z,55
2017-01-07T10:45:35.688Z,55
2017-01-07T10:46:16.289Z,55
2017-01-07T10:46:56.916Z,55
2017-01-07T10:47:37.523Z,55